sensor_id;sensor_type;location;lat;lon;timestamp;pressure;altitude;pressure_sealevel;temperature;humidity
42001;BME280;27689;48.390;10.856;2023-05-03T00:01:33;96821.28;;;8.02;100.00
42001;BME280;27689;48.390;10.856;2023-05-03T00:04:18;96826.75;;;7.99;100.00
42001;BME280;27689;48.390;10.856;2023-05-03T00:07:02;96831.69;;;7.91;100.00
42001;BME280;27689;48.390;10.856;2023-05-03T00:09:46;96820.91;;;7.85;100.00
42001;BME280;27689;48.390;10.856;2023-05-03T00:12:32;96818.88;;;7.88;100.00
42001;BME280;27689;48.390;10.856;2023-05-03T00:15:16;96815.91;;;7.82;100.00
42001;BME280;27689;48.390;10.856;2023-05-03T00:18:01;96817.69;;;7.81;100.00
42001;BME280;27689;48.390;10.856;2023-05-03T00:20:45;96814.41;;;7.66;100.00
42001;BME280;27689;48.390;10.856;2023-05-03T00:23:29;96822.13;;;7.68;100.00
42001;BME280;27689;48.390;10.856;2023-05-03T00:26:13;96825.47;;;7.70;100.00
42001;BME280;27689;48.390;10.856;2023-05-03T00:28:57;96815.56;;;7.62;100.00
42001;BME280;27689;48.390;10.856;2023-05-03T00:31:44;96816.56;;;7.49;100.00
42001;BME280;27689;48.390;10.856;2023-05-03T00:34:28;96819.91;;;7.51;100.00
42001;BME280;27689;48.390;10.856;2023-05-03T00:37:12;96816.69;;;7.47;100.00
42001;BME280;27689;48.390;10.856;2023-05-03T00:39:56;96821.06;;;7.47;100.00
42001;BME280;27689;48.390;10.856;2023-05-03T00:42:40;96828.50;;;7.40;100.00
42001;BME280;27689;48.390;10.856;2023-05-03T00:45:24;96823.50;;;7.37;100.00
42001;BME280;27689;48.390;10.856;2023-05-03T00:48:09;96820.16;;;7.35;100.00
42001;BME280;27689;48.390;10.856;2023-05-03T00:50:53;96818.50;;;7.34;100.00
42001;BME280;27689;48.390;10.856;2023-05-03T00:53:38;96806.41;;;7.33;100.00
42001;BME280;27689;48.390;10.856;2023-05-03T00:56:22;96814.97;;;7.35;100.00
42001;BME280;27689;48.390;10.856;2023-05-03T00:59:07;96806.41;;;7.33;100.00
42001;BME280;27689;48.390;10.856;2023-05-03T01:01:52;96811.84;;;7.30;100.00
42001;BME280;27689;48.390;10.856;2023-05-03T01:04:36;96814.69;;;7.27;100.00
42001;BME280;27689;48.390;10.856;2023-05-03T01:10:47;96811.47;;;7.23;100.00
42001;BME280;27689;48.390;10.856;2023-05-03T01:14:00;96815.66;;;7.00;100.00
42001;BME280;27689;48.390;10.856;2023-05-03T01:16:51;96812.97;;;7.02;100.00
42001;BME280;27689;48.390;10.856;2023-05-03T01:19:42;96813.28;;;7.10;100.00
42001;BME280;27689;48.390;10.856;2023-05-03T01:22:36;96815.53;;;7.15;100.00
42001;BME280;27689;48.390;10.856;2023-05-03T01:25:21;96806.19;;;7.12;100.00
42001;BME280;27689;48.390;10.856;2023-05-03T01:28:05;96804.88;;;6.94;100.00
42001;BME280;27689;48.390;10.856;2023-05-03T01:30:51;96801.94;;;6.86;100.00
42001;BME280;27689;48.390;10.856;2023-05-03T01:33:47;96801.00;;;6.87;100.00
42001;BME280;27689;48.390;10.856;2023-05-03T01:36:34;96810.59;;;6.86;100.00
42001;BME280;27689;48.390;10.856;2023-05-03T01:39:22;96809.56;;;6.89;100.00
42001;BME280;27689;48.390;10.856;2023-05-03T01:42:06;96810.50;;;6.88;100.00
42001;BME280;27689;48.390;10.856;2023-05-03T01:44:51;96811.34;;;6.76;100.00
42001;BME280;27689;48.390;10.856;2023-05-03T01:47:36;96817.28;;;6.78;100.00
42001;BME280;27689;48.390;10.856;2023-05-03T01:50:19;96820.00;;;6.76;100.00
42001;BME280;27689;48.390;10.856;2023-05-03T01:53:03;96821.75;;;6.76;100.00
42001;BME280;27689;48.390;10.856;2023-05-03T01:55:47;96818.03;;;6.80;100.00
42001;BME280;27689;48.390;10.856;2023-05-03T01:58:31;96822.50;;;6.78;100.00
42001;BME280;27689;48.390;10.856;2023-05-03T02:01:15;96827.69;;;6.78;100.00
42001;BME280;27689;48.390;10.856;2023-05-03T02:03:59;96808.53;;;6.79;100.00
42001;BME280;27689;48.390;10.856;2023-05-03T02:06:43;96817.38;;;6.89;100.00
42001;BME280;27689;48.390;10.856;2023-05-03T02:09:27;96821.91;;;6.98;100.00
42001;BME280;27689;48.390;10.856;2023-05-03T02:12:11;96819.44;;;6.96;100.00
42001;BME280;27689;48.390;10.856;2023-05-03T02:14:55;96819.22;;;6.99;100.00
42001;BME280;27689;48.390;10.856;2023-05-03T02:17:41;96819.41;;;7.09;100.00
42001;BME280;27689;48.390;10.856;2023-05-03T02:20:25;96814.59;;;7.16;100.00
42001;BME280;27689;48.390;10.856;2023-05-03T02:23:09;96822.19;;;7.19;100.00
42001;BME280;27689;48.390;10.856;2023-05-03T02:25:53;96824.59;;;7.22;100.00
42001;BME280;27689;48.390;10.856;2023-05-03T02:28:37;96814.38;;;7.19;100.00
42001;BME280;27689;48.390;10.856;2023-05-03T02:31:21;96814.53;;;7.28;100.00
42001;BME280;27689;48.390;10.856;2023-05-03T02:34:05;96819.66;;;7.30;100.00
42001;BME280;27689;48.390;10.856;2023-05-03T02:36:49;96824.28;;;7.26;100.00
42001;BME280;27689;48.390;10.856;2023-05-03T02:39:33;96834.91;;;7.23;100.00
42001;BME280;27689;48.390;10.856;2023-05-03T02:42:17;96836.22;;;7.29;100.00
42001;BME280;27689;48.390;10.856;2023-05-03T02:45:01;96828.19;;;7.32;100.00
42001;BME280;27689;48.390;10.856;2023-05-03T02:47:46;96824.44;;;7.36;100.00
42001;BME280;27689;48.390;10.856;2023-05-03T02:50:29;96830.69;;;7.33;100.00
42001;BME280;27689;48.390;10.856;2023-05-03T02:53:13;96820.28;;;7.33;100.00
42001;BME280;27689;48.390;10.856;2023-05-03T02:55:57;96818.41;;;7.35;100.00
42001;BME280;27689;48.390;10.856;2023-05-03T02:58:41;96820.78;;;7.38;100.00
42001;BME280;27689;48.390;10.856;2023-05-03T03:01:25;96818.91;;;7.40;100.00
42001;BME280;27689;48.390;10.856;2023-05-03T03:04:10;96826.00;;;7.38;100.00
42001;BME280;27689;48.390;10.856;2023-05-03T03:06:54;96807.75;;;7.38;100.00
42001;BME280;27689;48.390;10.856;2023-05-03T03:09:39;96813.69;;;7.40;100.00
42001;BME280;27689;48.390;10.856;2023-05-03T03:12:23;96826.00;;;7.38;100.00
42001;BME280;27689;48.390;10.856;2023-05-03T03:15:08;96825.50;;;7.33;100.00
42001;BME280;27689;48.390;10.856;2023-05-03T03:17:52;96821.25;;;7.20;100.00
42001;BME280;27689;48.390;10.856;2023-05-03T03:20:40;96823.13;;;7.18;100.00
42001;BME280;27689;48.390;10.856;2023-05-03T03:23:24;96826.78;;;7.15;100.00
42001;BME280;27689;48.390;10.856;2023-05-03T03:26:08;96830.63;;;7.22;100.00
42001;BME280;27689;48.390;10.856;2023-05-03T03:28:52;96827.09;;;7.23;100.00
42001;BME280;27689;48.390;10.856;2023-05-03T03:31:36;96825.34;;;7.11;100.00
42001;BME280;27689;48.390;10.856;2023-05-03T03:34:20;96822.13;;;7.07;100.00
42001;BME280;27689;48.390;10.856;2023-05-03T03:37:04;96830.06;;;7.06;100.00
42001;BME280;27689;48.390;10.856;2023-05-03T03:39:48;96814.31;;;7.07;100.00
42001;BME280;27689;48.390;10.856;2023-05-03T03:42:32;96825.00;;;7.16;100.00
42001;BME280;27689;48.390;10.856;2023-05-03T03:45:16;96830.63;;;7.22;100.00
42001;BME280;27689;48.390;10.856;2023-05-03T03:48:00;96829.34;;;7.28;100.00
42001;BME280;27689;48.390;10.856;2023-05-03T03:50:44;96832.09;;;7.26;100.00
42001;BME280;27689;48.390;10.856;2023-05-03T03:53:28;96833.53;;;7.30;100.00
42001;BME280;27689;48.390;10.856;2023-05-03T03:56:12;96841.84;;;7.35;100.00
42001;BME280;27689;48.390;10.856;2023-05-03T03:58:56;96834.88;;;7.36;100.00
42001;BME280;27689;48.390;10.856;2023-05-03T04:01:40;96840.91;;;7.36;100.00
42001;BME280;27689;48.390;10.856;2023-05-03T04:04:24;96841.84;;;7.35;100.00
42001;BME280;27689;48.390;10.856;2023-05-03T04:07:08;96843.72;;;7.33;100.00
42001;BME280;27689;48.390;10.856;2023-05-03T04:09:52;96843.09;;;7.30;100.00
42001;BME280;27689;48.390;10.856;2023-05-03T04:12:36;96847.22;;;7.21;100.00
42001;BME280;27689;48.390;10.856;2023-05-03T04:15:20;96850.34;;;7.26;100.00
42001;BME280;27689;48.390;10.856;2023-05-03T04:18:05;96857.81;;;7.31;100.00
42001;BME280;27689;48.390;10.856;2023-05-03T04:20:49;96857.59;;;7.34;100.00
42001;BME280;27689;48.390;10.856;2023-05-03T04:23:33;96860.22;;;7.34;100.00
42001;BME280;27689;48.390;10.856;2023-05-03T04:26:17;96861.69;;;7.25;100.00
42001;BME280;27689;48.390;10.856;2023-05-03T04:29:01;96853.88;;;7.25;100.00
42001;BME280;27689;48.390;10.856;2023-05-03T04:31:45;96859.59;;;7.30;100.00
42001;BME280;27689;48.390;10.856;2023-05-03T04:34:29;96857.91;;;7.29;100.00
42001;BME280;27689;48.390;10.856;2023-05-03T04:37:13;96862.81;;;7.34;100.00
42001;BME280;27689;48.390;10.856;2023-05-03T04:39:57;96863.34;;;7.39;100.00
42001;BME280;27689;48.390;10.856;2023-05-03T04:42:41;96879.25;;;7.47;100.00
42001;BME280;27689;48.390;10.856;2023-05-03T04:45:26;96872.06;;;7.51;100.00
42001;BME280;27689;48.390;10.856;2023-05-03T04:48:10;96871.84;;;7.54;100.00
42001;BME280;27689;48.390;10.856;2023-05-03T04:50:54;96872.22;;;7.60;100.00
42001;BME280;27689;48.390;10.856;2023-05-03T04:53:38;96868.44;;;7.64;100.00
42001;BME280;27689;48.390;10.856;2023-05-03T04:56:23;96867.19;;;7.70;100.00
42001;BME280;27689;48.390;10.856;2023-05-03T04:59:10;96875.34;;;7.65;100.00
42001;BME280;27689;48.390;10.856;2023-05-03T05:01:55;96879.03;;;7.74;100.00
42001;BME280;27689;48.390;10.856;2023-05-03T05:04:39;96877.88;;;7.78;100.00
42001;BME280;27689;48.390;10.856;2023-05-03T05:07:23;96874.13;;;7.82;100.00
42001;BME280;27689;48.390;10.856;2023-05-03T05:10:07;96882.09;;;7.92;100.00
42001;BME280;27689;48.390;10.856;2023-05-03T05:12:51;96880.22;;;7.94;100.00
42001;BME280;27689;48.390;10.856;2023-05-03T05:15:35;96884.88;;;8.01;100.00
42001;BME280;27689;48.390;10.856;2023-05-03T05:18:19;96887.03;;;8.07;100.00
42001;BME280;27689;48.390;10.856;2023-05-03T05:21:04;96892.03;;;8.10;100.00
42001;BME280;27689;48.390;10.856;2023-05-03T05:23:48;96892.66;;;8.14;100.00
42001;BME280;27689;48.390;10.856;2023-05-03T05:26:33;96893.13;;;8.19;100.00
42001;BME280;27689;48.390;10.856;2023-05-03T05:29:17;96898.72;;;8.14;100.00
42001;BME280;27689;48.390;10.856;2023-05-03T05:32:01;96887.78;;;8.21;100.00
42001;BME280;27689;48.390;10.856;2023-05-03T05:34:47;96898.41;;;8.30;100.00
42001;BME280;27689;48.390;10.856;2023-05-03T05:37:37;96902.03;;;8.40;100.00
42001;BME280;27689;48.390;10.856;2023-05-03T05:40:21;96908.56;;;8.46;100.00
42001;BME280;27689;48.390;10.856;2023-05-03T05:43:05;96908.81;;;8.43;100.00
42001;BME280;27689;48.390;10.856;2023-05-03T05:45:49;96914.28;;;8.51;100.00
42001;BME280;27689;48.390;10.856;2023-05-03T05:48:33;96908.81;;;8.54;100.00
42001;BME280;27689;48.390;10.856;2023-05-03T05:51:18;96912.63;;;8.61;100.00
42001;BME280;27689;48.390;10.856;2023-05-03T05:54:02;96902.56;;;8.68;100.00
42001;BME280;27689;48.390;10.856;2023-05-03T05:56:46;96905.56;;;8.74;100.00
42001;BME280;27689;48.390;10.856;2023-05-03T05:59:30;96910.31;;;8.80;100.00
42001;BME280;27689;48.390;10.856;2023-05-03T06:02:15;96915.06;;;8.87;100.00
42001;BME280;27689;48.390;10.856;2023-05-03T06:04:59;96914.13;;;8.88;100.00
42001;BME280;27689;48.390;10.856;2023-05-03T06:07:44;96912.34;;;8.88;100.00
42001;BME280;27689;48.390;10.856;2023-05-03T06:10:28;96915.19;;;8.96;100.00
42001;BME280;27689;48.390;10.856;2023-05-03T06:13:12;96915.81;;;8.89;100.00
42001;BME280;27689;48.390;10.856;2023-05-03T06:15:56;96909.84;;;8.98;100.00
42001;BME280;27689;48.390;10.856;2023-05-03T06:18:39;96918.91;;;9.05;100.00
42001;BME280;27689;48.390;10.856;2023-05-03T06:21:23;96917.47;;;9.12;100.00
42001;BME280;27689;48.390;10.856;2023-05-03T06:24:08;96920.81;;;9.14;100.00
42001;BME280;27689;48.390;10.856;2023-05-03T06:26:52;96922.25;;;9.18;100.00
42001;BME280;27689;48.390;10.856;2023-05-03T06:29:36;96914.03;;;9.23;100.00
42001;BME280;27689;48.390;10.856;2023-05-03T06:32:20;96918.31;;;9.24;100.00
42001;BME280;27689;48.390;10.856;2023-05-03T06:35:06;96922.94;;;9.20;100.00
42001;BME280;27689;48.390;10.856;2023-05-03T06:37:51;96933.53;;;9.18;100.00
42001;BME280;27689;48.390;10.856;2023-05-03T06:40:36;96924.97;;;9.16;100.00
42001;BME280;27689;48.390;10.856;2023-05-03T06:43:19;96932.59;;;9.19;100.00
42001;BME280;27689;48.390;10.856;2023-05-03T06:46:04;96930.44;;;9.25;100.00
42001;BME280;27689;48.390;10.856;2023-05-03T06:48:49;96926.03;;;9.25;100.00
42001;BME280;27689;48.390;10.856;2023-05-03T06:51:33;96935.53;;;9.26;100.00
42001;BME280;27689;48.390;10.856;2023-05-03T06:54:17;96929.59;;;9.35;100.00
42001;BME280;27689;48.390;10.856;2023-05-03T06:57:02;96927.81;;;9.36;100.00
42001;BME280;27689;48.390;10.856;2023-05-03T06:59:48;96926.03;;;9.36;100.00
42001;BME280;27689;48.390;10.856;2023-05-03T07:02:32;96929.84;;;9.43;100.00
42001;BME280;27689;48.390;10.856;2023-05-03T07:05:16;96926.75;;;9.38;100.00
42001;BME280;27689;48.390;10.856;2023-05-03T07:08:00;96924.63;;;9.32;100.00
42001;BME280;27689;48.390;10.856;2023-05-03T07:10:44;96923.19;;;9.28;100.00
42001;BME280;27689;48.390;10.856;2023-05-03T07:13:28;96921.28;;;9.19;100.00
42001;BME280;27689;48.390;10.856;2023-05-03T07:16:12;96918.31;;;9.35;100.00
42001;BME280;27689;48.390;10.856;2023-05-03T07:18:56;96919.84;;;9.26;100.00
42001;BME280;27689;48.390;10.856;2023-05-03T07:21:40;96906.19;;;9.45;100.00
42001;BME280;27689;48.390;10.856;2023-05-03T07:24:24;96904.16;;;9.48;100.00
42001;BME280;27689;48.390;10.856;2023-05-03T07:27:08;96901.28;;;9.51;100.00
42001;BME280;27689;48.390;10.856;2023-05-03T07:29:52;96902.00;;;9.53;100.00
42001;BME280;27689;48.390;10.856;2023-05-03T07:32:36;96897.16;;;9.49;100.00
42001;BME280;27689;48.390;10.856;2023-05-03T07:35:20;96896.31;;;9.48;100.00
42001;BME280;27689;48.390;10.856;2023-05-03T07:38:05;96897.22;;;9.70;100.00
42001;BME280;27689;48.390;10.856;2023-05-03T07:40:49;96902.97;;;9.64;100.00
42001;BME280;27689;48.390;10.856;2023-05-03T07:43:33;96890.78;;;9.74;100.00
42001;BME280;27689;48.390;10.856;2023-05-03T07:46:17;96887.78;;;9.89;100.00
42001;BME280;27689;48.390;10.856;2023-05-03T07:49:02;96889.75;;;9.97;100.00
42001;BME280;27689;48.390;10.856;2023-05-03T07:51:46;96896.50;;;10.11;100.00
42001;BME280;27689;48.390;10.856;2023-05-03T07:54:30;96895.94;;;10.18;100.00
42001;BME280;27689;48.390;10.856;2023-05-03T07:57:14;96890.88;;;10.27;100.00
42001;BME280;27689;48.390;10.856;2023-05-03T08:00:02;96889.56;;;10.32;100.00
42001;BME280;27689;48.390;10.856;2023-05-03T08:02:47;96885.63;;;10.38;100.00
42001;BME280;27689;48.390;10.856;2023-05-03T08:05:30;96893.78;;;10.44;100.00
42001;BME280;27689;48.390;10.856;2023-05-03T08:08:14;96878.13;;;10.54;100.00
42001;BME280;27689;48.390;10.856;2023-05-03T08:10:58;96888.09;;;10.60;100.00
42001;BME280;27689;48.390;10.856;2023-05-03T08:13:42;96892.81;;;10.45;100.00
42001;BME280;27689;48.390;10.856;2023-05-03T08:16:26;96892.94;;;10.23;100.00
42001;BME280;27689;48.390;10.856;2023-05-03T08:19:10;96893.31;;;10.39;100.00
42001;BME280;27689;48.390;10.856;2023-05-03T08:21:54;96894.75;;;10.64;100.00
42001;BME280;27689;48.390;10.856;2023-05-03T08:24:38;96898.13;;;10.76;100.00
42001;BME280;27689;48.390;10.856;2023-05-03T08:27:22;96894.97;;;10.40;100.00
42001;BME280;27689;48.390;10.856;2023-05-03T08:30:09;96883.13;;;10.36;100.00
42001;BME280;27689;48.390;10.856;2023-05-03T08:32:53;96888.16;;;10.49;100.00
42001;BME280;27689;48.390;10.856;2023-05-03T08:35:37;96896.84;;;10.49;100.00
42001;BME280;27689;48.390;10.856;2023-05-03T08:38:21;96894.50;;;10.67;100.00
42001;BME280;27689;48.390;10.856;2023-05-03T08:41:13;96897.69;;;10.50;100.00
42001;BME280;27689;48.390;10.856;2023-05-03T08:44:00;96896.22;;;10.78;100.00
42001;BME280;27689;48.390;10.856;2023-05-03T08:46:46;96898.41;;;11.03;100.00
42001;BME280;27689;48.390;10.856;2023-05-03T08:49:31;96890.53;;;11.24;100.00
42001;BME280;27689;48.390;10.856;2023-05-03T08:52:16;96883.78;;;11.31;100.00
42001;BME280;27689;48.390;10.856;2023-05-03T08:55:03;96890.16;;;11.38;100.00
42001;BME280;27689;48.390;10.856;2023-05-03T08:57:47;96889.22;;;11.49;100.00
42001;BME280;27689;48.390;10.856;2023-05-03T09:00:31;96886.91;;;11.55;100.00
42001;BME280;27689;48.390;10.856;2023-05-03T09:03:16;96889.28;;;11.68;100.00
42001;BME280;27689;48.390;10.856;2023-05-03T09:05:59;96897.50;;;11.84;100.00
42001;BME280;27689;48.390;10.856;2023-05-03T09:08:44;96896.69;;;11.84;100.00
42001;BME280;27689;48.390;10.856;2023-05-03T09:11:31;96895.41;;;11.78;100.00
42001;BME280;27689;48.390;10.856;2023-05-03T09:14:17;96896.94;;;11.81;100.00
42001;BME280;27689;48.390;10.856;2023-05-03T09:17:16;96899.03;;;11.47;100.00
42001;BME280;27689;48.390;10.856;2023-05-03T09:20:00;96896.13;;;11.80;100.00
42001;BME280;27689;48.390;10.856;2023-05-03T09:22:49;96894.75;;;12.05;100.00
42001;BME280;27689;48.390;10.856;2023-05-03T09:25:41;96893.94;;;12.24;100.00
42001;BME280;27689;48.390;10.856;2023-05-03T09:28:26;96890.78;;;12.40;100.00
42001;BME280;27689;48.390;10.856;2023-05-03T09:31:10;96889.53;;;12.53;100.00
42001;BME280;27689;48.390;10.856;2023-05-03T09:33:55;96895.88;;;12.51;100.00
42001;BME280;27689;48.390;10.856;2023-05-03T09:36:46;96890.47;;;12.71;100.00
42001;BME280;27689;48.390;10.856;2023-05-03T09:39:29;96889.78;;;12.69;99.62
42001;BME280;27689;48.390;10.856;2023-05-03T09:42:16;96891.16;;;12.74;100.00
42001;BME280;27689;48.390;10.856;2023-05-03T09:45:00;96890.69;;;12.97;99.02
42001;BME280;27689;48.390;10.856;2023-05-03T09:47:50;96888.03;;;13.17;99.16
42001;BME280;27689;48.390;10.856;2023-05-03T09:50:36;96885.72;;;13.41;97.90
42001;BME280;27689;48.390;10.856;2023-05-03T09:53:21;96883.88;;;13.51;97.47
42001;BME280;27689;48.390;10.856;2023-05-03T09:56:07;96885.66;;;13.51;94.83
42001;BME280;27689;48.390;10.856;2023-05-03T09:58:53;96888.97;;;13.53;94.14
42001;BME280;27689;48.390;10.856;2023-05-03T10:01:37;96887.72;;;13.57;95.82
42001;BME280;27689;48.390;10.856;2023-05-03T10:04:24;96884.53;;;13.63;94.73
42001;BME280;27689;48.390;10.856;2023-05-03T10:07:16;96889.66;;;13.64;94.48
42001;BME280;27689;48.390;10.856;2023-05-03T10:10:00;96888.34;;;13.68;94.71
42001;BME280;27689;48.390;10.856;2023-05-03T10:12:45;96877.25;;;13.74;94.55
42001;BME280;27689;48.390;10.856;2023-05-03T10:15:29;96877.53;;;13.71;90.06
42001;BME280;27689;48.390;10.856;2023-05-03T10:18:16;96880.66;;;13.57;92.92
42001;BME280;27689;48.390;10.856;2023-05-03T10:21:13;96883.56;;;13.82;91.43
42001;BME280;27689;48.390;10.856;2023-05-03T10:26:55;96876.09;;;14.40;91.49
42001;BME280;27689;48.390;10.856;2023-05-03T10:29:43;96873.72;;;14.72;86.57
42001;BME280;27689;48.390;10.856;2023-05-03T10:32:36;96879.19;;;14.53;82.99
42001;BME280;27689;48.390;10.856;2023-05-03T10:35:28;96877.06;;;14.57;83.00
42001;BME280;27689;48.390;10.856;2023-05-03T10:38:19;96872.75;;;14.56;85.14
42001;BME280;27689;48.390;10.856;2023-05-03T10:41:03;96868.31;;;14.56;86.27
42001;BME280;27689;48.390;10.856;2023-05-03T10:43:49;96880.03;;;14.54;85.55
42001;BME280;27689;48.390;10.856;2023-05-03T10:46:33;96875.09;;;14.59;86.54
42001;BME280;27689;48.390;10.856;2023-05-03T10:49:18;96867.44;;;14.48;83.23
42001;BME280;27689;48.390;10.856;2023-05-03T10:55:20;96866.53;;;14.39;87.23
42001;BME280;27689;48.390;10.856;2023-05-03T10:58:10;96869.75;;;14.33;86.23
42001;BME280;27689;48.390;10.856;2023-05-03T11:00:56;96866.00;;;14.35;86.15
42001;BME280;27689;48.390;10.856;2023-05-03T11:03:51;96859.94;;;14.25;83.47
42001;BME280;27689;48.390;10.856;2023-05-03T11:06:39;96859.44;;;14.22;83.50
42001;BME280;27689;48.390;10.856;2023-05-03T11:09:32;96861.41;;;14.20;85.39
42001;BME280;27689;48.390;10.856;2023-05-03T11:12:16;96856.88;;;14.30;85.86
42001;BME280;27689;48.390;10.856;2023-05-03T11:15:00;96849.19;;;14.36;85.75
42001;BME280;27689;48.390;10.856;2023-05-03T11:17:44;96856.97;;;14.38;83.34
42001;BME280;27689;48.390;10.856;2023-05-03T11:20:28;96847.94;;;14.40;82.76
42001;BME280;27689;48.390;10.856;2023-05-03T11:23:13;96855.25;;;14.46;84.47
42001;BME280;27689;48.390;10.856;2023-05-03T11:25:57;96845.38;;;14.49;84.48
42001;BME280;27689;48.390;10.856;2023-05-03T11:28:42;96848.59;;;14.86;83.94
42001;BME280;27689;48.390;10.856;2023-05-03T11:31:27;96843.78;;;15.41;83.88
42001;BME280;27689;48.390;10.856;2023-05-03T11:34:12;96842.84;;;16.01;81.84
42001;BME280;27689;48.390;10.856;2023-05-03T11:36:56;96846.84;;;16.45;78.85
42001;BME280;27689;48.390;10.856;2023-05-03T11:39:40;96827.81;;;16.82;80.00
42001;BME280;27689;48.390;10.856;2023-05-03T11:42:24;96835.28;;;16.87;71.89
42001;BME280;27689;48.390;10.856;2023-05-03T11:45:09;96835.53;;;17.08;72.42
42001;BME280;27689;48.390;10.856;2023-05-03T11:47:54;96836.47;;;17.32;74.91
42001;BME280;27689;48.390;10.856;2023-05-03T11:50:49;96831.84;;;17.25;71.73
42001;BME280;27689;48.390;10.856;2023-05-03T11:53:40;96837.59;;;17.84;72.71
42001;BME280;27689;48.390;10.856;2023-05-03T11:56:26;96826.13;;;18.15;70.97
42001;BME280;27689;48.390;10.856;2023-05-03T11:59:11;96838.22;;;17.94;61.92
42001;BME280;27689;48.390;10.856;2023-05-03T12:01:54;96835.50;;;18.03;67.53
42001;BME280;27689;48.390;10.856;2023-05-03T12:04:40;96835.84;;;17.69;62.68
42001;BME280;27689;48.390;10.856;2023-05-03T12:07:24;96831.47;;;17.37;61.65
42001;BME280;27689;48.390;10.856;2023-05-03T12:10:16;96832.38;;;18.22;64.38
42001;BME280;27689;48.390;10.856;2023-05-03T12:13:01;96833.09;;;18.39;60.33
42001;BME280;27689;48.390;10.856;2023-05-03T12:15:55;96831.94;;;17.87;60.35
42001;BME280;27689;48.390;10.856;2023-05-03T12:21:46;96826.19;;;18.07;59.61
42001;BME280;27689;48.390;10.856;2023-05-03T12:24:30;96824.66;;;18.12;59.27
42001;BME280;27689;48.390;10.856;2023-05-03T12:27:14;96812.78;;;18.46;58.94
42001;BME280;27689;48.390;10.856;2023-05-03T12:29:59;96826.59;;;18.64;63.26
42001;BME280;27689;48.390;10.856;2023-05-03T12:32:43;96812.47;;;19.30;61.41
42001;BME280;27689;48.390;10.856;2023-05-03T12:35:26;96809.63;;;19.47;57.22
42001;BME280;27689;48.390;10.856;2023-05-03T12:38:10;96807.34;;;19.44;59.54
42001;BME280;27689;48.390;10.856;2023-05-03T12:40:55;96804.13;;;18.89;57.48
42001;BME280;27689;48.390;10.856;2023-05-03T12:43:39;96807.41;;;18.91;58.25
42001;BME280;27689;48.390;10.856;2023-05-03T12:46:23;96800.94;;;19.23;59.44
42001;BME280;27689;48.390;10.856;2023-05-03T12:49:07;96796.03;;;18.45;55.40
42001;BME280;27689;48.390;10.856;2023-05-03T12:51:51;96793.31;;;18.76;57.72
42001;BME280;27689;48.390;10.856;2023-05-03T12:54:35;96788.81;;;18.39;57.79
42001;BME280;27689;48.390;10.856;2023-05-03T12:57:19;96786.53;;;18.88;57.87
42001;BME280;27689;48.390;10.856;2023-05-03T13:00:05;96785.81;;;18.94;56.13
42001;BME280;27689;48.390;10.856;2023-05-03T13:02:50;96774.22;;;19.46;55.03
42001;BME280;27689;48.390;10.856;2023-05-03T13:05:34;96769.22;;;19.51;53.20
42001;BME280;27689;48.390;10.856;2023-05-03T13:08:18;96770.53;;;20.19;57.20
42001;BME280;27689;48.390;10.856;2023-05-03T13:11:02;96765.63;;;20.16;53.98
42001;BME280;27689;48.390;10.856;2023-05-03T13:13:47;96769.22;;;20.51;50.66
42001;BME280;27689;48.390;10.856;2023-05-03T13:16:31;96757.72;;;20.72;49.87
42001;BME280;27689;48.390;10.856;2023-05-03T13:19:15;96750.88;;;20.91;51.91
42001;BME280;27689;48.390;10.856;2023-05-03T13:21:59;96758.28;;;20.67;50.62
42001;BME280;27689;48.390;10.856;2023-05-03T13:24:45;96747.63;;;20.67;53.93
42001;BME280;27689;48.390;10.856;2023-05-03T13:27:29;96746.16;;;21.27;53.23
42001;BME280;27689;48.390;10.856;2023-05-03T13:30:13;96732.97;;;21.67;51.11
42001;BME280;27689;48.390;10.856;2023-05-03T13:32:57;96732.84;;;21.88;51.07
42001;BME280;27689;48.390;10.856;2023-05-03T13:35:41;96738.16;;;21.81;49.13
42001;BME280;27689;48.390;10.856;2023-05-03T13:38:25;96728.84;;;21.58;49.81
42001;BME280;27689;48.390;10.856;2023-05-03T13:41:09;96724.22;;;21.25;45.94
42001;BME280;27689;48.390;10.856;2023-05-03T13:43:54;96720.44;;;21.48;49.32
42001;BME280;27689;48.390;10.856;2023-05-03T13:46:38;96722.22;;;21.40;46.16
42001;BME280;27689;48.390;10.856;2023-05-03T13:49:25;96723.00;;;21.28;48.58
42001;BME280;27689;48.390;10.856;2023-05-03T13:52:10;96712.22;;;21.08;49.43
42001;BME280;27689;48.390;10.856;2023-05-03T13:54:54;96714.81;;;20.11;50.18
42001;BME280;27689;48.390;10.856;2023-05-03T13:57:38;96711.19;;;20.40;52.48
42001;BME280;27689;48.390;10.856;2023-05-03T14:00:22;96704.38;;;19.67;49.20
42001;BME280;27689;48.390;10.856;2023-05-03T14:03:06;96702.75;;;19.00;51.51
42001;BME280;27689;48.390;10.856;2023-05-03T14:05:50;96695.63;;;19.52;52.87
42001;BME280;27689;48.390;10.856;2023-05-03T14:08:34;96694.13;;;19.85;52.24
42001;BME280;27689;48.390;10.856;2023-05-03T14:11:18;96690.22;;;19.09;52.59
42001;BME280;27689;48.390;10.856;2023-05-03T14:14:04;96688.53;;;19.59;53.82
42001;BME280;27689;48.390;10.856;2023-05-03T14:16:48;96686.84;;;19.94;52.79
42001;BME280;27689;48.390;10.856;2023-05-03T14:19:34;96684.72;;;20.11;53.98
42001;BME280;27689;48.390;10.856;2023-05-03T14:22:18;96681.09;;;20.18;53.22
42001;BME280;27689;48.390;10.856;2023-05-03T14:25:02;96689.69;;;19.92;54.14
42001;BME280;27689;48.390;10.856;2023-05-03T14:27:46;96686.91;;;19.58;53.85
42001;BME280;27689;48.390;10.856;2023-05-03T14:30:30;96689.69;;;19.35;51.56
42001;BME280;27689;48.390;10.856;2023-05-03T14:33:14;96678.22;;;18.98;53.00